sensor_id;sensor_type;location;lat;lon;timestamp;P1;durP1;ratioP1;P2;durP2;ratioP2
19705;SDS011;10003;52.506;4.700;2023-06-22T00:00:35;6.30;;;4.60;;
19705;SDS011;10003;52.506;4.700;2023-06-22T00:03:04;1.90;;;1.80;;
19705;SDS011;10003;52.506;4.700;2023-06-22T00:05:34;4.93;;;4.53;;
19705;SDS011;10003;52.506;4.700;2023-06-22T00:08:03;3.23;;;3.03;;
19705;SDS011;10003;52.506;4.700;2023-06-22T00:10:32;2.67;;;2.53;;
19705;SDS011;10003;52.506;4.700;2023-06-22T00:13:00;1.10;;;1.10;;
19705;SDS011;10003;52.506;4.700;2023-06-22T00:15:29;4.57;;;1.60;;
19705;SDS011;10003;52.506;4.700;2023-06-22T00:17:57;2.57;;;2.47;;
19705;SDS011;10003;52.506;4.700;2023-06-22T00:20:26;8.47;;;5.03;;
19705;SDS011;10003;52.506;4.700;2023-06-22T00:22:59;2.53;;;1.40;;
19705;SDS011;10003;52.506;4.700;2023-06-22T00:25:27;5.63;;;5.07;;
19705;SDS011;10003;52.506;4.700;2023-06-22T00:27:56;2.90;;;2.70;;
19705;SDS011;10003;52.506;4.700;2023-06-22T00:30:24;4.10;;;3.70;;
19705;SDS011;10003;52.506;4.700;2023-06-22T00:32:53;2.60;;;1.40;;
19705;SDS011;10003;52.506;4.700;2023-06-22T00:35:22;2.70;;;2.50;;
19705;SDS011;10003;52.506;4.700;2023-06-22T00:37:55;6.37;;;5.87;;
19705;SDS011;10003;52.506;4.700;2023-06-22T00:40:28;1.37;;;1.30;;
19705;SDS011;10003;52.506;4.700;2023-06-22T00:42:57;1.27;;;1.27;;
19705;SDS011;10003;52.506;4.700;2023-06-22T00:45:25;2.83;;;2.37;;
19705;SDS011;10003;52.506;4.700;2023-06-22T00:47:55;1.13;;;1.13;;
19705;SDS011;10003;52.506;4.700;2023-06-22T00:50:25;4.93;;;2.70;;
19705;SDS011;10003;52.506;4.700;2023-06-22T00:52:55;2.73;;;2.63;;
19705;SDS011;10003;52.506;4.700;2023-06-22T00:55:25;4.43;;;3.53;;
19705;SDS011;10003;52.506;4.700;2023-06-22T00:57:55;3.17;;;3.00;;
19705;SDS011;10003;52.506;4.700;2023-06-22T01:00:24;1.33;;;1.23;;
19705;SDS011;10003;52.506;4.700;2023-06-22T01:02:53;2.23;;;2.13;;
19705;SDS011;10003;52.506;4.700;2023-06-22T01:05:22;3.03;;;2.93;;
19705;SDS011;10003;52.506;4.700;2023-06-22T01:07:54;2.00;;;1.90;;
19705;SDS011;10003;52.506;4.700;2023-06-22T01:10:24;4.93;;;2.70;;
19705;SDS011;10003;52.506;4.700;2023-06-22T01:12:58;11.47;;;2.90;;
19705;SDS011;10003;52.506;4.700;2023-06-22T01:15:30;9.40;;;6.17;;
19705;SDS011;10003;52.506;4.700;2023-06-22T01:17:59;5.97;;;4.20;;
19705;SDS011;10003;52.506;4.700;2023-06-22T01:20:28;1.23;;;1.23;;
19705;SDS011;10003;52.506;4.700;2023-06-22T01:23:02;0.47;;;0.47;;
19705;SDS011;10003;52.506;4.700;2023-06-22T01:25:33;1.23;;;1.23;;
19705;SDS011;10003;52.506;4.700;2023-06-22T01:28:10;0.40;;;0.40;;
19705;SDS011;10003;52.506;4.700;2023-06-22T01:30:44;1.90;;;1.17;;
19705;SDS011;10003;52.506;4.700;2023-06-22T01:33:13;10.30;;;6.20;;
19705;SDS011;10003;52.506;4.700;2023-06-22T01:35:42;6.97;;;6.47;;
19705;SDS011;10003;52.506;4.700;2023-06-22T01:38:11;1.03;;;1.03;;
19705;SDS011;10003;52.506;4.700;2023-06-22T01:40:40;0.93;;;0.93;;
19705;SDS011;10003;52.506;4.700;2023-06-22T01:43:09;0.40;;;0.40;;
19705;SDS011;10003;52.506;4.700;2023-06-22T01:45:37;0.47;;;0.47;;
19705;SDS011;10003;52.506;4.700;2023-06-22T01:48:07;0.40;;;0.40;;
19705;SDS011;10003;52.506;4.700;2023-06-22T01:50:36;0.40;;;0.40;;
19705;SDS011;10003;52.506;4.700;2023-06-22T01:53:04;3.37;;;3.17;;
19705;SDS011;10003;52.506;4.700;2023-06-22T01:55:33;0.40;;;0.40;;
19705;SDS011;10003;52.506;4.700;2023-06-22T01:58:01;1.27;;;1.17;;
19705;SDS011;10003;52.506;4.700;2023-06-22T02:00:31;0.90;;;0.87;;
19705;SDS011;10003;52.506;4.700;2023-06-22T02:03:01;0.40;;;0.40;;
19705;SDS011;10003;52.506;4.700;2023-06-22T02:05:33;0.40;;;0.40;;
19705;SDS011;10003;52.506;4.700;2023-06-22T02:08:05;1.23;;;1.23;;
19705;SDS011;10003;52.506;4.700;2023-06-22T02:10:35;1.00;;;1.00;;
19705;SDS011;10003;52.506;4.700;2023-06-22T02:13:05;2.03;;;1.93;;
19705;SDS011;10003;52.506;4.700;2023-06-22T02:15:34;1.37;;;1.37;;
19705;SDS011;10003;52.506;4.700;2023-06-22T02:18:03;1.57;;;1.47;;
19705;SDS011;10003;52.506;4.700;2023-06-22T02:20:34;0.47;;;0.47;;
19705;SDS011;10003;52.506;4.700;2023-06-22T02:23:04;0.70;;;0.70;;
19705;SDS011;10003;52.506;4.700;2023-06-22T02:25:33;1.37;;;1.37;;
19705;SDS011;10003;52.506;4.700;2023-06-22T02:28:01;1.53;;;1.43;;
19705;SDS011;10003;52.506;4.700;2023-06-22T02:30:30;1.90;;;1.80;;
19705;SDS011;10003;52.506;4.700;2023-06-22T02:32:58;0.80;;;0.80;;
19705;SDS011;10003;52.506;4.700;2023-06-22T02:35:27;1.73;;;1.63;;
19705;SDS011;10003;52.506;4.700;2023-06-22T02:37:59;1.13;;;1.13;;
19705;SDS011;10003;52.506;4.700;2023-06-22T02:40:28;3.30;;;2.23;;
19705;SDS011;10003;52.506;4.700;2023-06-22T02:42:57;1.80;;;1.70;;
19705;SDS011;10003;52.506;4.700;2023-06-22T02:45:29;2.43;;;1.03;;
19705;SDS011;10003;52.506;4.700;2023-06-22T02:47:57;3.63;;;3.27;;
19705;SDS011;10003;52.506;4.700;2023-06-22T02:50:26;0.40;;;0.40;;
19705;SDS011;10003;52.506;4.700;2023-06-22T02:52:55;0.50;;;0.50;;
19705;SDS011;10003;52.506;4.700;2023-06-22T02:55:26;3.43;;;2.87;;
19705;SDS011;10003;52.506;4.700;2023-06-22T02:57:54;0.63;;;0.63;;
19705;SDS011;10003;52.506;4.700;2023-06-22T03:00:25;2.03;;;1.93;;
19705;SDS011;10003;52.506;4.700;2023-06-22T03:02:57;1.00;;;1.00;;
19705;SDS011;10003;52.506;4.700;2023-06-22T03:05:26;0.77;;;0.77;;
19705;SDS011;10003;52.506;4.700;2023-06-22T03:07:54;0.87;;;0.87;;
19705;SDS011;10003;52.506;4.700;2023-06-22T03:10:23;1.00;;;1.00;;
19705;SDS011;10003;52.506;4.700;2023-06-22T03:12:54;0.73;;;0.73;;
19705;SDS011;10003;52.506;4.700;2023-06-22T03:15:23;4.53;;;3.63;;
19705;SDS011;10003;52.506;4.700;2023-06-22T03:17:51;4.47;;;4.07;;
19705;SDS011;10003;52.506;4.700;2023-06-22T03:20:20;2.40;;;2.30;;
19705;SDS011;10003;52.506;4.700;2023-06-22T03:22:49;2.90;;;2.70;;
19705;SDS011;10003;52.506;4.700;2023-06-22T03:25:18;2.17;;;2.07;;
19705;SDS011;10003;52.506;4.700;2023-06-22T03:27:46;4.37;;;3.57;;
19705;SDS011;10003;52.506;4.700;2023-06-22T03:30:17;5.93;;;3.47;;
19705;SDS011;10003;52.506;4.700;2023-06-22T03:32:45;1.53;;;1.43;;
19705;SDS011;10003;52.506;4.700;2023-06-22T03:35:14;0.53;;;0.53;;
19705;SDS011;10003;52.506;4.700;2023-06-22T03:37:42;3.70;;;3.43;;
19705;SDS011;10003;52.506;4.700;2023-06-22T03:40:11;1.13;;;1.13;;
19705;SDS011;10003;52.506;4.700;2023-06-22T03:42:39;2.30;;;2.10;;
19705;SDS011;10003;52.506;4.700;2023-06-22T03:45:08;3.50;;;3.23;;
19705;SDS011;10003;52.506;4.700;2023-06-22T03:47:38;2.20;;;2.10;;
19705;SDS011;10003;52.506;4.700;2023-06-22T03:50:07;5.33;;;4.30;;
19705;SDS011;10003;52.506;4.700;2023-06-22T03:52:35;2.70;;;2.57;;
19705;SDS011;10003;52.506;4.700;2023-06-22T03:55:04;4.23;;;3.43;;
19705;SDS011;10003;52.506;4.700;2023-06-22T03:57:33;0.63;;;0.63;;
19705;SDS011;10003;52.506;4.700;2023-06-22T04:00:02;0.90;;;0.90;;
19705;SDS011;10003;52.506;4.700;2023-06-22T04:02:31;4.17;;;3.77;;
19705;SDS011;10003;52.506;4.700;2023-06-22T04:05:01;2.60;;;2.47;;
19705;SDS011;10003;52.506;4.700;2023-06-22T04:07:30;4.70;;;3.53;;
19705;SDS011;10003;52.506;4.700;2023-06-22T04:09:59;1.93;;;1.83;;
19705;SDS011;10003;52.506;4.700;2023-06-22T04:12:27;5.60;;;3.27;;
19705;SDS011;10003;52.506;4.700;2023-06-22T04:14:56;4.83;;;3.93;;
19705;SDS011;10003;52.506;4.700;2023-06-22T04:17:24;2.57;;;2.40;;
19705;SDS011;10003;52.506;4.700;2023-06-22T04:19:53;2.57;;;2.47;;
19705;SDS011;10003;52.506;4.700;2023-06-22T04:22:22;2.23;;;2.13;;
19705;SDS011;10003;52.506;4.700;2023-06-22T04:24:51;1.23;;;1.23;;
19705;SDS011;10003;52.506;4.700;2023-06-22T04:27:19;0.80;;;0.80;;
19705;SDS011;10003;52.506;4.700;2023-06-22T04:29:49;3.67;;;3.00;;
19705;SDS011;10003;52.506;4.700;2023-06-22T04:32:18;9.17;;;3.17;;
19705;SDS011;10003;52.506;4.700;2023-06-22T04:34:46;1.77;;;1.67;;
19705;SDS011;10003;52.506;4.700;2023-06-22T04:37:15;9.00;;;6.53;;
19705;SDS011;10003;52.506;4.700;2023-06-22T04:39:45;8.57;;;7.00;;
19705;SDS011;10003;52.506;4.700;2023-06-22T04:42:13;2.03;;;2.00;;
19705;SDS011;10003;52.506;4.700;2023-06-22T04:44:42;4.63;;;4.13;;
19705;SDS011;10003;52.506;4.700;2023-06-22T04:47:10;11.53;;;7.57;;
19705;SDS011;10003;52.506;4.700;2023-06-22T04:49:39;5.83;;;4.60;;
19705;SDS011;10003;52.506;4.700;2023-06-22T04:52:10;3.40;;;3.07;;
19705;SDS011;10003;52.506;4.700;2023-06-22T04:54:39;4.33;;;4.00;;
19705;SDS011;10003;52.506;4.700;2023-06-22T04:57:15;1.30;;;1.13;;
19705;SDS011;10003;52.506;4.700;2023-06-22T04:59:43;1.50;;;1.40;;
19705;SDS011;10003;52.506;4.700;2023-06-22T05:02:12;0.67;;;0.67;;
19705;SDS011;10003;52.506;4.700;2023-06-22T05:04:41;0.83;;;0.83;;
19705;SDS011;10003;52.506;4.700;2023-06-22T05:07:09;2.10;;;2.00;;
19705;SDS011;10003;52.506;4.700;2023-06-22T05:09:38;8.33;;;6.83;;
19705;SDS011;10003;52.506;4.700;2023-06-22T05:12:07;1.23;;;1.23;;
19705;SDS011;10003;52.506;4.700;2023-06-22T05:14:38;3.17;;;2.90;;
19705;SDS011;10003;52.506;4.700;2023-06-22T05:17:06;0.30;;;0.30;;
19705;SDS011;10003;52.506;4.700;2023-06-22T05:19:41;5.63;;;2.60;;
19705;SDS011;10003;52.506;4.700;2023-06-22T05:22:14;1.13;;;1.13;;
19705;SDS011;10003;52.506;4.700;2023-06-22T05:24:43;1.57;;;1.53;;
19705;SDS011;10003;52.506;4.700;2023-06-22T05:27:11;0.70;;;0.70;;
19705;SDS011;10003;52.506;4.700;2023-06-22T05:29:41;3.00;;;2.80;;
19705;SDS011;10003;52.506;4.700;2023-06-22T05:32:09;2.93;;;2.73;;
19705;SDS011;10003;52.506;4.700;2023-06-22T05:34:38;7.90;;;1.00;;
19705;SDS011;10003;52.506;4.700;2023-06-22T05:37:07;5.07;;;2.77;;
19705;SDS011;10003;52.506;4.700;2023-06-22T05:39:36;5.00;;;4.60;;
19705;SDS011;10003;52.506;4.700;2023-06-22T05:42:05;5.33;;;4.77;;
19705;SDS011;10003;52.506;4.700;2023-06-22T05:44:36;4.27;;;3.77;;
19705;SDS011;10003;52.506;4.700;2023-06-22T05:47:07;7.50;;;5.20;;
19705;SDS011;10003;52.506;4.700;2023-06-22T05:49:35;19.43;;;10.33;;
19705;SDS011;10003;52.506;4.700;2023-06-22T05:52:04;8.27;;;6.60;;
19705;SDS011;10003;52.506;4.700;2023-06-22T05:54:35;14.50;;;9.70;;
19705;SDS011;10003;52.506;4.700;2023-06-22T05:57:05;8.90;;;1.87;;
19705;SDS011;10003;52.506;4.700;2023-06-22T05:59:33;24.13;;;15.50;;
19705;SDS011;10003;52.506;4.700;2023-06-22T06:02:02;7.87;;;6.20;;
19705;SDS011;10003;52.506;4.700;2023-06-22T06:04:34;3.33;;;1.33;;
19705;SDS011;10003;52.506;4.700;2023-06-22T06:07:02;3.13;;;2.97;;
19705;SDS011;10003;52.506;4.700;2023-06-22T06:09:33;10.53;;;8.67;;
19705;SDS011;10003;52.506;4.700;2023-06-22T06:12:04;16.63;;;9.50;;
19705;SDS011;10003;52.506;4.700;2023-06-22T06:14:33;15.53;;;11.03;;
19705;SDS011;10003;52.506;4.700;2023-06-22T06:17:02;12.53;;;10.13;;
19705;SDS011;10003;52.506;4.700;2023-06-22T06:19:30;7.40;;;6.27;;
19705;SDS011;10003;52.506;4.700;2023-06-22T06:22:00;7.13;;;6.43;;
19705;SDS011;10003;52.506;4.700;2023-06-22T06:24:29;15.20;;;9.30;;
19705;SDS011;10003;52.506;4.700;2023-06-22T06:26:57;5.97;;;5.00;;
19705;SDS011;10003;52.506;4.700;2023-06-22T06:29:26;9.07;;;7.63;;
19705;SDS011;10003;52.506;4.700;2023-06-22T06:31:54;7.03;;;6.10;;
19705;SDS011;10003;52.506;4.700;2023-06-22T06:34:23;12.40;;;7.40;;
19705;SDS011;10003;52.506;4.700;2023-06-22T06:36:51;11.47;;;8.27;;
19705;SDS011;10003;52.506;4.700;2023-06-22T06:39:21;16.37;;;11.83;;
19705;SDS011;10003;52.506;4.700;2023-06-22T06:41:50;14.63;;;12.27;;
19705;SDS011;10003;52.506;4.700;2023-06-22T06:44:18;9.43;;;7.03;;
19705;SDS011;10003;52.506;4.700;2023-06-22T06:46:47;11.77;;;9.60;;
19705;SDS011;10003;52.506;4.700;2023-06-22T06:49:16;19.07;;;14.07;;
19705;SDS011;10003;52.506;4.700;2023-06-22T06:51:45;18.37;;;11.50;;
19705;SDS011;10003;52.506;4.700;2023-06-22T06:54:13;15.43;;;10.00;;
19705;SDS011;10003;52.506;4.700;2023-06-22T06:56:43;20.60;;;13.80;;
19705;SDS011;10003;52.506;4.700;2023-06-22T06:59:14;14.40;;;10.87;;
19705;SDS011;10003;52.506;4.700;2023-06-22T07:01:43;25.87;;;16.70;;
19705;SDS011;10003;52.506;4.700;2023-06-22T07:04:12;9.67;;;6.17;;
19705;SDS011;10003;52.506;4.700;2023-06-22T07:06:40;9.83;;;7.20;;
19705;SDS011;10003;52.506;4.700;2023-06-22T07:09:09;14.53;;;11.07;;
19705;SDS011;10003;52.506;4.700;2023-06-22T07:11:37;6.83;;;6.23;;
19705;SDS011;10003;52.506;4.700;2023-06-22T07:14:08;8.27;;;7.43;;
19705;SDS011;10003;52.506;4.700;2023-06-22T07:16:37;15.37;;;9.90;;
19705;SDS011;10003;52.506;4.700;2023-06-22T07:19:07;4.67;;;4.07;;
19705;SDS011;10003;52.506;4.700;2023-06-22T07:21:35;14.27;;;11.47;;
19705;SDS011;10003;52.506;4.700;2023-06-22T07:24:04;9.80;;;8.23;;
19705;SDS011;10003;52.506;4.700;2023-06-22T07:26:33;13.67;;;10.83;;
19705;SDS011;10003;52.506;4.700;2023-06-22T07:29:02;9.23;;;5.83;;
19705;SDS011;10003;52.506;4.700;2023-06-22T07:31:32;6.23;;;4.57;;
19705;SDS011;10003;52.506;4.700;2023-06-22T07:34:04;6.33;;;5.77;;
19705;SDS011;10003;52.506;4.700;2023-06-22T07:36:33;15.40;;;9.10;;
19705;SDS011;10003;52.506;4.700;2023-06-22T07:39:02;14.97;;;7.73;;
19705;SDS011;10003;52.506;4.700;2023-06-22T07:41:31;13.47;;;9.20;;
19705;SDS011;10003;52.506;4.700;2023-06-22T07:44:01;11.33;;;9.27;;
19705;SDS011;10003;52.506;4.700;2023-06-22T07:46:30;6.93;;;6.30;;
19705;SDS011;10003;52.506;4.700;2023-06-22T07:49:00;12.47;;;11.17;;
19705;SDS011;10003;52.506;4.700;2023-06-22T07:51:28;11.73;;;8.07;;
19705;SDS011;10003;52.506;4.700;2023-06-22T07:53:57;10.27;;;9.23;;
19705;SDS011;10003;52.506;4.700;2023-06-22T07:56:25;10.53;;;8.27;;
19705;SDS011;10003;52.506;4.700;2023-06-22T07:58:54;11.63;;;9.83;;
19705;SDS011;10003;52.506;4.700;2023-06-22T08:01:24;9.30;;;8.03;;
19705;SDS011;10003;52.506;4.700;2023-06-22T08:03:53;10.70;;;9.00;;
19705;SDS011;10003;52.506;4.700;2023-06-22T08:06:23;18.53;;;15.23;;
19705;SDS011;10003;52.506;4.700;2023-06-22T08:08:51;14.00;;;11.57;;
19705;SDS011;10003;52.506;4.700;2023-06-22T08:11:20;16.33;;;12.17;;
19705;SDS011;10003;52.506;4.700;2023-06-22T08:13:51;9.40;;;7.87;;
19705;SDS011;10003;52.506;4.700;2023-06-22T08:16:22;13.43;;;11.43;;
19705;SDS011;10003;52.506;4.700;2023-06-22T08:18:50;7.40;;;6.67;;
19705;SDS011;10003;52.506;4.700;2023-06-22T08:21:19;20.93;;;17.20;;
19705;SDS011;10003;52.506;4.700;2023-06-22T08:23:48;22.73;;;15.87;;
19705;SDS011;10003;52.506;4.700;2023-06-22T08:26:17;16.97;;;12.63;;
19705;SDS011;10003;52.506;4.700;2023-06-22T08:28:46;19.47;;;17.37;;
19705;SDS011;10003;52.506;4.700;2023-06-22T08:31:16;7.60;;;6.87;;
19705;SDS011;10003;52.506;4.700;2023-06-22T08:33:44;14.53;;;9.53;;
19705;SDS011;10003;52.506;4.700;2023-06-22T08:36:15;10.30;;;8.23;;
19705;SDS011;10003;52.506;4.700;2023-06-22T08:38:43;18.03;;;14.83;;
19705;SDS011;10003;52.506;4.700;2023-06-22T08:41:18;9.73;;;7.57;;
19705;SDS011;10003;52.506;4.700;2023-06-22T08:43:46;6.13;;;5.57;;
19705;SDS011;10003;52.506;4.700;2023-06-22T08:46:15;11.07;;;9.90;;
19705;SDS011;10003;52.506;4.700;2023-06-22T08:48:46;13.93;;;10.80;;
19705;SDS011;10003;52.506;4.700;2023-06-22T08:51:14;10.37;;;9.37;;
19705;SDS011;10003;52.506;4.700;2023-06-22T08:53:43;10.13;;;8.73;;
19705;SDS011;10003;52.506;4.700;2023-06-22T08:56:12;15.40;;;8.03;;
19705;SDS011;10003;52.506;4.700;2023-06-22T08:58:42;12.60;;;11.30;;
19705;SDS011;10003;52.506;4.700;2023-06-22T09:01:10;27.80;;;12.90;;
19705;SDS011;10003;52.506;4.700;2023-06-22T09:03:39;5.43;;;4.93;;
19705;SDS011;10003;52.506;4.700;2023-06-22T09:06:07;11.70;;;8.47;;
19705;SDS011;10003;52.506;4.700;2023-06-22T09:08:36;10.20;;;8.70;;
19705;SDS011;10003;52.506;4.700;2023-06-22T09:11:05;12.40;;;9.00;;
19705;SDS011;10003;52.506;4.700;2023-06-22T09:13:34;13.80;;;8.27;;
19705;SDS011;10003;52.506;4.700;2023-06-22T09:16:04;8.63;;;6.57;;
19705;SDS011;10003;52.506;4.700;2023-06-22T09:18:33;14.73;;;8.90;;
19705;SDS011;10003;52.506;4.700;2023-06-22T09:21:02;12.63;;;8.93;;
19705;SDS011;10003;52.506;4.700;2023-06-22T09:23:31;13.73;;;11.00;;
19705;SDS011;10003;52.506;4.700;2023-06-22T09:25:59;13.13;;;8.83;;
19705;SDS011;10003;52.506;4.700;2023-06-22T09:28:29;8.53;;;7.27;;
19705;SDS011;10003;52.506;4.700;2023-06-22T09:30:57;14.67;;;10.03;;
19705;SDS011;10003;52.506;4.700;2023-06-22T09:33:27;10.13;;;8.93;;
19705;SDS011;10003;52.506;4.700;2023-06-22T09:35:56;8.63;;;7.77;;
19705;SDS011;10003;52.506;4.700;2023-06-22T09:38:24;4.43;;;3.03;;
19705;SDS011;10003;52.506;4.700;2023-06-22T09:40:53;11.83;;;6.97;;
19705;SDS011;10003;52.506;4.700;2023-06-22T09:43:21;9.73;;;8.77;;
19705;SDS011;10003;52.506;4.700;2023-06-22T09:45:51;7.77;;;6.07;;
19705;SDS011;10003;52.506;4.700;2023-06-22T09:48:19;8.83;;;7.93;;
19705;SDS011;10003;52.506;4.700;2023-06-22T09:50:49;3.90;;;3.50;;
19705;SDS011;10003;52.506;4.700;2023-06-22T09:53:18;14.53;;;8.20;;
19705;SDS011;10003;52.506;4.700;2023-06-22T09:55:46;7.67;;;5.67;;
19705;SDS011;10003;52.506;4.700;2023-06-22T09:58:15;10.47;;;7.73;;
19705;SDS011;10003;52.506;4.700;2023-06-22T10:00:43;10.27;;;9.27;;
19705;SDS011;10003;52.506;4.700;2023-06-22T10:03:11;6.03;;;5.03;;
19705;SDS011;10003;52.506;4.700;2023-06-22T10:05:40;5.13;;;3.43;;
19705;SDS011;10003;52.506;4.700;2023-06-22T10:08:13;7.63;;;5.20;;
19705;SDS011;10003;52.506;4.700;2023-06-22T10:10:42;5.73;;;4.87;;
19705;SDS011;10003;52.506;4.700;2023-06-22T10:13:10;3.23;;;2.93;;
19705;SDS011;10003;52.506;4.700;2023-06-22T10:15:39;3.13;;;2.77;;
19705;SDS011;10003;52.506;4.700;2023-06-22T10:18:07;4.63;;;4.03;;
19705;SDS011;10003;52.506;4.700;2023-06-22T10:20:36;3.90;;;3.43;;
19705;SDS011;10003;52.506;4.700;2023-06-22T10:23:05;7.57;;;4.83;;
19705;SDS011;10003;52.506;4.700;2023-06-22T10:25:35;5.70;;;3.60;;
19705;SDS011;10003;52.506;4.700;2023-06-22T10:28:03;4.20;;;3.80;;
19705;SDS011;10003;52.506;4.700;2023-06-22T10:30:32;3.33;;;2.00;;
19705;SDS011;10003;52.506;4.700;2023-06-22T10:33:00;3.83;;;2.90;;
19705;SDS011;10003;52.506;4.700;2023-06-22T10:35:29;5.63;;;2.90;;
19705;SDS011;10003;52.506;4.700;2023-06-22T10:37:58;4.63;;;2.80;;
19705;SDS011;10003;52.506;4.700;2023-06-22T10:40:27;4.50;;;3.13;;
19705;SDS011;10003;52.506;4.700;2023-06-22T10:42:57;8.90;;;4.63;;
19705;SDS011;10003;52.506;4.700;2023-06-22T10:45:26;6.23;;;4.70;;
19705;SDS011;10003;52.506;4.700;2023-06-22T10:47:55;2.27;;;2.17;;
19705;SDS011;10003;52.506;4.700;2023-06-22T10:50:24;3.57;;;2.97;;
19705;SDS011;10003;52.506;4.700;2023-06-22T10:52:53;7.73;;;6.93;;
19705;SDS011;10003;52.506;4.700;2023-06-22T10:55:25;7.13;;;3.60;;
19705;SDS011;10003;52.506;4.700;2023-06-22T10:58:13;5.83;;;4.47;;
19705;SDS011;10003;52.506;4.700;2023-06-22T11:00:42;14.00;;;6.67;;
19705;SDS011;10003;52.506;4.700;2023-06-22T11:03:10;10.43;;;6.70;;
19705;SDS011;10003;52.506;4.700;2023-06-22T11:05:40;6.97;;;5.67;;
19705;SDS011;10003;52.506;4.700;2023-06-22T11:08:09;4.43;;;3.63;;
19705;SDS011;10003;52.506;4.700;2023-06-22T11:10:37;13.73;;;7.00;;
19705;SDS011;10003;52.506;4.700;2023-06-22T11:13:06;3.90;;;3.27;;
19705;SDS011;10003;52.506;4.700;2023-06-22T11:15:39;4.90;;;4.40;;
19705;SDS011;10003;52.506;4.700;2023-06-22T11:18:08;4.83;;;4.33;;
19705;SDS011;10003;52.506;4.700;2023-06-22T11:20:37;9.00;;;5.07;;
19705;SDS011;10003;52.506;4.700;2023-06-22T11:23:07;4.40;;;3.93;;
19705;SDS011;10003;52.506;4.700;2023-06-22T11:25:35;4.33;;;2.57;;
19705;SDS011;10003;52.506;4.700;2023-06-22T11:28:05;4.60;;;3.90;;
19705;SDS011;10003;52.506;4.700;2023-06-22T11:30:34;6.57;;;4.33;;
19705;SDS011;10003;52.506;4.700;2023-06-22T11:33:04;8.50;;;6.03;;
19705;SDS011;10003;52.506;4.700;2023-06-22T11:35:33;3.57;;;3.33;;
19705;SDS011;10003;52.506;4.700;2023-06-22T11:38:03;5.13;;;4.63;;
19705;SDS011;10003;52.506;4.700;2023-06-22T11:40:31;5.93;;;4.80;;
19705;SDS011;10003;52.506;4.700;2023-06-22T11:43:00;5.13;;;3.57;;
19705;SDS011;10003;52.506;4.700;2023-06-22T11:45:29;4.30;;;3.90;;
19705;SDS011;10003;52.506;4.700;2023-06-22T11:47:57;8.03;;;5.60;;
19705;SDS011;10003;52.506;4.700;2023-06-22T11:50:27;5.27;;;3.43;;
19705;SDS011;10003;52.506;4.700;2023-06-22T11:52:57;3.87;;;3.50;;
19705;SDS011;10003;52.506;4.700;2023-06-22T11:55:25;5.60;;;4.40;;
19705;SDS011;10003;52.506;4.700;2023-06-22T11:57:54;4.00;;;3.07;;
19705;SDS011;10003;52.506;4.700;2023-06-22T12:00:25;5.10;;;4.60;;
19705;SDS011;10003;52.506;4.700;2023-06-22T12:02:56;2.77;;;2.53;;
19705;SDS011;10003;52.506;4.700;2023-06-22T12:05:28;8.53;;;3.90;;
19705;SDS011;10003;52.506;4.700;2023-06-22T12:07:56;7.00;;;5.27;;
19705;SDS011;10003;52.506;4.700;2023-06-22T12:10:25;7.27;;;4.30;;
19705;SDS011;10003;52.506;4.700;2023-06-22T12:12:55;4.47;;;3.83;;
19705;SDS011;10003;52.506;4.700;2023-06-22T12:15:26;6.13;;;4.10;;
19705;SDS011;10003;52.506;4.700;2023-06-22T12:17:55;5.97;;;3.90;;
19705;SDS011;10003;52.506;4.700;2023-06-22T12:20:23;4.83;;;4.03;;
19705;SDS011;10003;52.506;4.700;2023-06-22T12:22:53;6.50;;;5.53;;
19705;SDS011;10003;52.506;4.700;2023-06-22T12:25:24;4.90;;;3.83;;
19705;SDS011;10003;52.506;4.700;2023-06-22T12:27:53;8.13;;;5.90;;
19705;SDS011;10003;52.506;4.700;2023-06-22T12:30:21;6.03;;;5.00;;
19705;SDS011;10003;52.506;4.700;2023-06-22T12:32:50;7.70;;;5.20;;
19705;SDS011;10003;52.506;4.700;2023-06-22T12:35:21;4.90;;;4.40;;
19705;SDS011;10003;52.506;4.700;2023-06-22T12:37:50;9.70;;;5.27;;
19705;SDS011;10003;52.506;4.700;2023-06-22T12:40:20;3.40;;;3.10;;
19705;SDS011;10003;52.506;4.700;2023-06-22T12:42:49;6.20;;;4.07;;
19705;SDS011;10003;52.506;4.700;2023-06-22T12:45:18;3.77;;;3.17;;
19705;SDS011;10003;52.506;4.700;2023-06-22T12:47:48;1.90;;;1.77;;
19705;SDS011;10003;52.506;4.700;2023-06-22T12:50:17;3.33;;;3.03;;
19705;SDS011;10003;52.506;4.700;2023-06-22T12:52:46;4.60;;;4.20;;
19705;SDS011;10003;52.506;4.700;2023-06-22T12:55:15;6.17;;;4.10;;
19705;SDS011;10003;52.506;4.700;2023-06-22T12:57:45;3.70;;;3.40;;
19705;SDS011;10003;52.506;4.700;2023-06-22T13:00:13;6.07;;;4.83;;
19705;SDS011;10003;52.506;4.700;2023-06-22T13:02:42;5.57;;;4.73;;
19705;SDS011;10003;52.506;4.700;2023-06-22T13:05:11;5.53;;;4.10;;
19705;SDS011;10003;52.506;4.700;2023-06-22T13:07:40;6.40;;;5.57;;
19705;SDS011;10003;52.506;4.700;2023-06-22T13:10:09;4.63;;;4.20;;
19705;SDS011;10003;52.506;4.700;2023-06-22T13:12:38;3.93;;;3.30;;
19705;SDS011;10003;52.506;4.700;2023-06-22T13:15:08;4.83;;;4.40;;
19705;SDS011;10003;52.506;4.700;2023-06-22T13:17:36;3.97;;;3.57;;
19705;SDS011;10003;52.506;4.700;2023-06-22T13:20:05;2.33;;;2.20;;
19705;SDS011;10003;52.506;4.700;2023-06-22T13:22:34;2.30;;;2.10;;
19705;SDS011;10003;52.506;4.700;2023-06-22T13:25:07;6.03;;;3.80;;
19705;SDS011;10003;52.506;4.700;2023-06-22T13:27:38;4.57;;;2.60;;
19705;SDS011;10003;52.506;4.700;2023-06-22T13:30:09;6.23;;;1.50;;
19705;SDS011;10003;52.506;4.700;2023-06-22T13:32:40;1.87;;;1.77;;
19705;SDS011;10003;52.506;4.700;2023-06-22T13:35:09;4.67;;;2.77;;
19705;SDS011;10003;52.506;4.700;2023-06-22T13:37:39;10.13;;;4.83;;
19705;SDS011;10003;52.506;4.700;2023-06-22T13:40:07;1.87;;;1.60;;
19705;SDS011;10003;52.506;4.700;2023-06-22T13:42:36;3.63;;;3.07;;
19705;SDS011;10003;52.506;4.700;2023-06-22T13:45:05;1.80;;;1.03;;
19705;SDS011;10003;52.506;4.700;2023-06-22T13:47:36;4.53;;;3.17;;
19705;SDS011;10003;52.506;4.700;2023-06-22T13:50:05;3.83;;;3.03;;
19705;SDS011;10003;52.506;4.700;2023-06-22T13:52:34;3.27;;;2.97;;
19705;SDS011;10003;52.506;4.700;2023-06-22T13:55:02;4.37;;;3.23;;
19705;SDS011;10003;52.506;4.700;2023-06-22T13:57:32;3.73;;;3.17;;
19705;SDS011;10003;52.506;4.700;2023-06-22T14:00:01;4.73;;;2.10;;
19705;SDS011;10003;52.506;4.700;2023-06-22T14:02:31;3.53;;;3.03;;
19705;SDS011;10003;52.506;4.700;2023-06-22T14:05:02;2.20;;;2.00;;
19705;SDS011;10003;52.506;4.700;2023-06-22T14:07:30;5.03;;;3.27;;
19705;SDS011;10003;52.506;4.700;2023-06-22T14:09:59;2.30;;;2.10;;
19705;SDS011;10003;52.506;4.700;2023-06-22T14:12:27;3.03;;;2.40;;
19705;SDS011;10003;52.506;4.700;2023-06-22T14:14:56;2.43;;;2.10;;
19705;SDS011;10003;52.506;4.700;2023-06-22T14:17:26;3.27;;;2.23;;
19705;SDS011;10003;52.506;4.700;2023-06-22T14:19:54;2.97;;;2.73;;
19705;SDS011;10003;52.506;4.700;2023-06-22T14:22:24;2.87;;;2.53;;
19705;SDS011;10003;52.506;4.700;2023-06-22T14:24:55;9.63;;;3.80;;
19705;SDS011;10003;52.506;4.700;2023-06-22T14:27:25;6.87;;;4.07;;
19705;SDS011;10003;52.506;4.700;2023-06-22T14:29:53;2.27;;;2.00;;
19705;SDS011;10003;52.506;4.700;2023-06-22T14:32:22;4.20;;;3.80;;
19705;SDS011;10003;52.506;4.700;2023-06-22T14:34:53;3.00;;;2.73;;
19705;SDS011;10003;52.506;4.700;2023-06-22T14:37:22;3.23;;;2.93;;
19705;SDS011;10003;52.506;4.700;2023-06-22T14:39:52;2.50;;;2.07;;
19705;SDS011;10003;52.506;4.700;2023-06-22T14:42:20;2.53;;;2.33;;
19705;SDS011;10003;52.506;4.700;2023-06-22T14:44:49;3.73;;;3.10;;
19705;SDS011;10003;52.506;4.700;2023-06-22T14:47:17;2.17;;;1.97;;
19705;SDS011;10003;52.506;4.700;2023-06-22T14:49:47;2.17;;;1.97;;
19705;SDS011;10003;52.506;4.700;2023-06-22T14:52:16;5.93;;;2.80;;
19705;SDS011;10003;52.506;4.700;2023-06-22T14:54:44;4.03;;;2.90;;